Collins Center, New York
Current Conditions -  °F | °C
As of 3:53 AM on Sunday 23 Nov 2014 (Local Time) from KDKK Reporting Station
Overcast Overcast  
Wind Chill: 39°   Ceiling: 4100
Heat Index: 45°   Visibility: 10mi
Dew Point: 35°   Wind: 12mph
Humidity: 68%   Direction: 200°SSW
Pressure: 30"   Gusts: 24mph
Location:  42.49°N, 78.85°W
Report Text: KDKK 230853Z AUTO 20010G21KT 10SM OVC041 07/02 A3000 RMK AO2 SLP164 60001 T00720017 56004
Loading
Personal Weather Stations






























Interactive Weather Map New forecast layout! Learn more

10-Day Weather Forecast

Advertisements
Track Severe Weather on mobile